Terminal Aerodrome Forecast
Issued by NWS Wilmington, NC

Home | Current Version | Previous Version | Text Only | Print | Product List | Glossary On
Versions: 1 2 3 4 5 6 7 8 9 10 11 12 13 14 15
000
FTUS42 KILM 150528
TAFMYR
TAF
KMYR 150528Z 1506/1606 00000KT P6SM BKN150
     FM151500 24010KT P6SM SCT120 BKN200
     FM160200 32008KT P6SM BKN130=

USA.gov is the U.S. government's official web portal to all federal, state and local government web resources and services.